Salinas, CA

1:30 AM PDT on October 26, 2014 (GMT -0700)
University Park | Change Station
CLOSE
Current Station
Personal Weather Station
Location: Salinas, CA
Elevation: 52 ft
Nearby Weather Stations

Elev 52 ft 36.67 °N, 121.68 °W | Updated 1 minute ago

Clear
Clear
53.2 °F
Feels Like 53.2 °F
N
0.0
Wind Variable Wind from SSW

Today
High -- | Low -- °F
--% Chance of Precip.
Yesterday
High -- | Low -- °F
Precip. -- in
7:24 AM 6:16 PM
Waxing Crescent, 6% visible
Pressure 30.17 in
Visibility 10.0 miles
Clouds Clear
Dew Point 53 °F
Humidity 98%
Rainfall 0.00 in
Snow Depth Not available.
UV 0 out of 12
Pollen .10 out of 12
Air Quality Not available.
Flu Activity Sporadic
METAR KSNS 260753Z 00000KT 10SM CLR 14/12 A3014 RMK AO2 SLP216 T01440122 402170139

More Conditions Fewer Conditions

Pressure 30.17 in
Visibility 10.0 miles
Clouds Clear
Dew Point 53 °F
Humidity 98%
Rainfall 0.00 in
Snow Depth Not available.
UV 0 out of 12
Pollen .10 out of 12
Air Quality Not available.
Flu Activity Sporadic
METAR KSNS 260753Z 00000KT 10SM CLR 14/12 A3014 RMK AO2 SLP216 T01440122 402170139

More Conditions Fewer Conditions

10-Day Weather Forecast

Almanac

Astronomy

Oct. 26, 2014 Rise Set
Actual Time 7:24 AM PDT 6:16 PM PDT
Civil Twilight 6:57 AM PDT 6:42 PM PDT
Nautical Twilight 6:27 AM PDT 7:12 PM PDT
Astronomical Twilight 5:57 AM PDT 7:42 PM PDT
Moon 10:04 AM PDT 8:35 PM PDT
Length of Visible Light 11h 44m
Length of Day
10h 51m
Tomorrow will be 2m 8s shorter.
Waxing Crescent, 6% of the Moon is Illuminated
Today
Waxing Crescent
Oct 30
First Quarter
Nov 6
Full
Nov 14
Last Quarter
Nov 22
New

Today's Extremes

State Highs State Lows

Community

WunderPhotos

Upload Photos

1,765,127 photos uploaded!

Nearby

Snow Depth

Station Depth Elevation
Leavitt Lake 2 in 9400 ft
Sonora Pass 0 in 8800 ft
Blue Lakes 0 in 8000 ft
Virginia Lakes Ridge 0 in 9200 ft
Ebbetts Pass 3 in 8700 ft

Earthquake Activity

City Distance Mag. Time & Date
Antioch, California 96 miles 2.7 6:42 AM PDT
2014-10-25
Deer Park, California 135 miles 2.8 6:40 AM PDT
2014-10-25
Coalinga, California 79 miles 2.5 11:01 PM PDT
2014-10-24
Minimum magnitude displayed is 2.5.

Coastal Water Temperatures

Place Temperature
Monterey, CA 63.0 °F
Redwood City, CA 66.9 °F

Nearby Weather Stations